Time;durP1;ratioP1;P1;durP2;ratioP2;P2;SDS_P1;SDS_P2;PMS_P1;PMS_P2;Temp;Humidity;BMP_temperature;BMP_pressure;BME280_temperature;BME280_humidity;BME280_pressure;Samples;Min_cycle;Max_cycle;Signal;HPM_P1;HPM_P2
2021/09/29 00:01:22;;;;;;;0.00;0.00;;;12.60;79.30;;;;;;5052173;28;20033;-77
2021/09/29 00:03:48;;;;;;;0.00;0.00;;;12.60;79.30;;;;;;5053008;28;20052;-76
2021/09/29 00:06:14;;;;;;;0.00;0.00;;;12.60;79.30;;;;;;5053459;28;20032;-76
2021/09/29 00:08:40;;;;;;;0.00;0.00;;;12.70;79.30;;;;;;5053002;28;20466;-77
2021/09/29 00:11:06;;;;;;;0.00;0.00;;;12.60;79.30;;;;;;5053610;28;20036;-76
2021/09/29 00:13:32;;;;;;;0.00;0.00;;;12.60;79.30;;;;;;5053116;28;20107;-77
2021/09/29 00:15:57;;;;;;;0.00;0.00;;;12.60;79.40;;;;;;5052015;28;20036;-77
2021/09/29 00:18:23;;;;;;;0.00;0.00;;;12.60;79.40;;;;;;5053429;28;20025;-76
2021/09/29 00:20:50;;;;;;;0.00;0.00;;;12.60;79.40;;;;;;5053213;28;20028;-76
2021/09/29 00:23:16;;;;;;;0.00;0.00;;;12.60;79.40;;;;;;5050940;28;20486;-75
2021/09/29 00:25:41;;;;;;;0.00;0.00;;;12.60;79.40;;;;;;5052860;28;20045;-76
2021/09/29 00:28:07;;;;;;;0.00;0.00;;;12.60;79.50;;;;;;5051988;28;20119;-76
2021/09/29 00:30:50;;;;;;;0.00;0.00;;;12.60;80.10;;;;;;5057165;28;20086;-77
2021/09/29 00:33:19;;;;;;;0.00;0.00;;;12.60;79.50;;;;;;5055746;28;20036;-77
2021/09/29 00:35:46;;;;;;;0.00;0.00;;;12.60;79.50;;;;;;5056069;28;20047;-77
2021/09/29 00:38:12;;;;;;;0.00;0.00;;;12.60;79.50;;;;;;5055796;28;20116;-76
2021/09/29 00:40:38;;;;;;;0.00;0.00;;;12.60;79.60;;;;;;5056076;28;20036;-77
2021/09/29 00:43:04;;;;;;;0.00;0.00;;;12.60;79.60;;;;;;5056460;28;20032;-77
2021/09/29 00:45:30;;;;;;;0.00;0.00;;;12.60;79.60;;;;;;5056355;28;20393;-75
2021/09/29 00:47:55;;;;;;;0.00;0.00;;;12.60;79.60;;;;;;5056897;28;20373;-75
2021/09/29 00:50:21;;;;;;;0.00;0.00;;;12.60;79.70;;;;;;5056629;28;20036;-77
2021/09/29 00:52:47;;;;;;;0.00;0.00;;;12.50;79.70;;;;;;5056684;28;20453;-76
2021/09/29 00:55:14;;;;;;;0.00;0.00;;;12.60;79.80;;;;;;5055441;28;20079;-76
2021/09/29 00:57:40;;;;;;;0.00;0.00;;;12.60;79.80;;;;;;5056460;28;20032;-84
2021/09/29 01:00:07;;;;;;;0.00;0.00;;;12.60;79.80;;;;;;5056435;28;20051;-76
2021/09/29 01:02:33;;;;;;;0.00;0.00;;;12.50;79.80;;;;;;5056312;28;20029;-76
2021/09/29 01:04:59;;;;;;;0.00;0.00;;;12.50;79.80;;;;;;5055065;28;20029;-76
2021/09/29 01:07:27;;;;;;;0.00;0.00;;;12.50;79.70;;;;;;5056626;28;20036;-76
2021/09/29 01:09:56;;;;;;;0.00;0.00;;;12.50;79.70;;;;;;5056013;28;20033;-77
2021/09/29 01:12:40;;;;;;;0.00;0.00;;;12.50;79.80;;;;;;5036081;28;20033;-77
2021/09/29 01:15:17;;;;;;;0.00;0.00;;;12.50;79.80;;;;;;5025480;28;20026;-77
2021/09/29 01:17:49;;;;;;;0.00;0.00;;;12.50;79.80;;;;;;5027149;28;20045;-77
2021/09/29 01:20:24;;;;;;;0.00;0.00;;;12.50;79.90;;;;;;5027118;28;20101;-77
2021/09/29 01:23:05;;;;;;;;;;;12.50;80.00;;;;;;5024509;28;20032;-77
2021/09/29 01:25:47;;;;;;;0.00;0.00;;;12.50;79.80;;;;;;5025868;28;19918;-75
2021/09/29 01:28:17;;;;;;;0.00;0.00;;;12.60;79.50;;;;;;5023307;28;20032;-76
2021/09/29 01:30:43;;;;;;;0.00;0.00;;;12.50;79.60;;;;;;5026767;28;20052;-79
2021/09/29 01:33:09;;;;;;;0.00;0.00;;;12.50;79.70;;;;;;5018518;28;20033;-78
2021/09/29 01:35:36;;;;;;;0.00;0.00;;;12.50;79.80;;;;;;5016054;28;20454;-76
2021/09/29 01:38:02;;;;;;;0.00;0.00;;;12.50;79.80;;;;;;5014743;28;20103;-77
2021/09/29 01:40:28;;;;;;;0.00;0.00;;;12.50;79.80;;;;;;5014095;28;20037;-77
2021/09/29 01:42:54;;;;;;;0.00;0.00;;;12.50;79.60;;;;;;5014546;28;20104;-77
2021/09/29 01:45:20;;;;;;;0.00;0.00;;;12.40;79.60;;;;;;5015697;28;20025;-77
2021/09/29 01:47:48;;;;;;;0.00;0.00;;;12.40;79.60;;;;;;5016083;28;20088;-77
2021/09/29 01:50:17;;;;;;;0.00;0.00;;;12.40;79.70;;;;;;5015752;28;20408;-77
2021/09/29 01:52:46;;;;;;;0.00;0.00;;;12.40;79.60;;;;;;5015365;28;20425;-77
2021/09/29 01:55:17;;;;;;;0.00;0.00;;;12.40;79.50;;;;;;5014507;28;20026;-78
2021/09/29 01:57:47;;;;;;;0.00;0.00;;;12.40;79.60;;;;;;5015699;28;20029;-77
2021/09/29 02:00:13;;;;;;;0.00;0.00;;;12.40;79.50;;;;;;5015570;28;20038;-76
2021/09/29 02:02:41;;;;;;;0.00;0.00;;;12.40;79.60;;;;;;5014346;28;20120;-76
2021/09/29 02:05:07;;;;;;;0.00;0.00;;;12.30;79.60;;;;;;5015238;28;20386;-76
2021/09/29 02:07:33;;;;;;;0.00;0.00;;;12.30;79.60;;;;;;5014227;28;20030;-76
2021/09/29 02:09:59;;;;;;;0.00;0.00;;;12.30;79.60;;;;;;5015340;28;20022;-76
2021/09/29 02:12:25;;;;;;;0.00;0.00;;;12.30;79.60;;;;;;5015575;28;20038;-76
2021/09/29 02:14:51;;;;;;;0.00;0.00;;;12.30;79.60;;;;;;5013927;28;20033;-76
2021/09/29 02:17:18;;;;;;;0.00;0.00;;;12.40;79.60;;;;;;5014048;28;20034;-76
2021/09/29 02:19:44;;;;;;;0.00;0.00;;;12.40;79.50;;;;;;5014928;28;20077;-75
2021/09/29 02:22:13;;;;;;;0.00;0.00;;;12.30;79.40;;;;;;5013644;28;20033;-76
2021/09/29 02:24:39;;;;;;;0.00;0.00;;;12.30;79.50;;;;;;5013951;28;20056;-76
2021/09/29 02:27:05;;;;;;;0.00;0.00;;;12.30;79.50;;;;;;5014865;28;20030;-75
2021/09/29 02:29:31;;;;;;;0.00;0.00;;;12.30;79.50;;;;;;5015003;28;20037;-75
2021/09/29 02:31:56;;;;;;;0.00;0.00;;;12.30;79.50;;;;;;5014675;28;20053;-75
2021/09/29 02:34:22;;;;;;;0.00;0.00;;;12.30;79.40;;;;;;5014781;28;20115;-75
2021/09/29 02:36:48;;;;;;;0.00;0.00;;;12.20;79.40;;;;;;5014776;28;20032;-77
2021/09/29 02:39:14;;;;;;;0.00;0.00;;;12.20;79.50;;;;;;5015112;28;20049;-77
2021/09/29 02:41:40;;;;;;;0.00;0.00;;;12.30;79.60;;;;;;5014749;28;20061;-76
2021/09/29 02:44:08;;;;;;;0.00;0.00;;;12.30;79.60;;;;;;5013579;28;20088;-77
2021/09/29 02:46:36;;;;;;;0.00;0.00;;;12.30;79.50;;;;;;5040213;28;20036;-75
2021/09/29 02:49:02;;;;;;;0.00;0.00;;;12.30;79.60;;;;;;5054199;28;20457;-76
2021/09/29 02:51:28;;;;;;;0.00;0.00;;;12.20;79.50;;;;;;5053866;28;20116;-76
2021/09/29 02:53:53;;;;;;;0.00;0.00;;;12.20;79.60;;;;;;5053347;28;20572;-75
2021/09/29 02:56:19;;;;;;;0.00;0.00;;;12.20;79.60;;;;;;5054318;28;20032;-75
2021/09/29 02:58:45;;;;;;;0.00;0.00;;;12.20;79.60;;;;;;5054410;28;20101;-75
2021/09/29 03:01:11;;;;;;;0.00;0.00;;;12.20;79.50;;;;;;5054077;28;20103;-76
2021/09/29 03:03:36;;;;;;;0.00;0.00;;;12.20;79.40;;;;;;5053928;28;20461;-76
2021/09/29 03:06:02;;;;;;;0.00;0.00;;;12.20;79.40;;;;;;5054137;28;20021;-75
2021/09/29 03:08:28;;;;;;;0.00;0.00;;;12.20;79.30;;;;;;5038193;28;20075;-76
2021/09/29 03:10:54;;;;;;;0.00;0.00;;;12.20;79.30;;;;;;5033745;28;20436;-77
2021/09/29 03:13:20;;;;;;;0.00;0.00;;;12.20;79.30;;;;;;5033776;28;20026;-76
2021/09/29 03:15:46;;;;;;;0.00;0.00;;;12.20;79.50;;;;;;5034051;28;20077;-77
2021/09/29 03:18:12;;;;;;;0.00;0.00;;;12.20;79.40;;;;;;5033902;28;20060;-76
2021/09/29 03:20:37;;;;;;;0.00;0.00;;;12.20;79.30;;;;;;5032663;28;20068;-76
2021/09/29 03:23:04;;;;;;;0.00;0.00;;;12.10;79.30;;;;;;5032607;28;20037;-76
2021/09/29 03:25:30;;;;;;;0.00;0.00;;;12.10;79.20;;;;;;5033777;28;20164;-76
2021/09/29 03:27:55;;;;;;;0.00;0.00;;;12.10;79.30;;;;;;5033915;28;20072;-76
2021/09/29 03:30:22;;;;;;;0.00;0.00;;;12.10;79.40;;;;;;5033793;28;20526;-75
2021/09/29 03:32:47;;;;;;;0.00;0.00;;;12.10;79.30;;;;;;5033489;28;20039;-75
2021/09/29 03:35:14;;;;;;;0.20;0.00;;;12.10;79.30;;;;;;5032461;28;20116;-75
2021/09/29 03:37:40;;;;;;;0.00;0.00;;;12.00;79.20;;;;;;5033392;28;20084;-76
2021/09/29 03:40:10;;;;;;;0.00;0.00;;;12.10;79.30;;;;;;5038932;28;20040;-77
2021/09/29 03:42:36;;;;;;;0.00;0.00;;;12.00;79.30;;;;;;5032556;28;20501;-76
2021/09/29 03:45:04;;;;;;;0.00;0.00;;;12.00;79.30;;;;;;5033523;28;20029;-76
2021/09/29 03:47:29;;;;;;;0.00;0.00;;;12.00;79.20;;;;;;5033357;28;20025;-75
2021/09/29 03:49:56;;;;;;;0.00;0.00;;;12.00;79.10;;;;;;5032648;28;20026;-76
2021/09/29 03:52:21;;;;;;;0.00;0.00;;;11.90;79.00;;;;;;5032774;28;20076;-78
2021/09/29 03:54:47;;;;;;;0.00;0.00;;;11.90;79.10;;;;;;5048794;28;20412;-76
2021/09/29 03:57:13;;;;;;;0.00;0.00;;;11.90;79.10;;;;;;5052246;28;20064;-76
2021/09/29 03:59:39;;;;;;;0.00;0.00;;;11.80;79.20;;;;;;5053686;28;20376;-77
2021/09/29 04:02:04;;;;;;;0.00;0.00;;;11.80;79.20;;;;;;5033053;28;20034;-79
2021/09/29 04:04:30;;;;;;;0.00;0.00;;;11.80;79.20;;;;;;5023865;28;20072;-76
2021/09/29 04:06:56;;;;;;;0.00;0.00;;;11.80;79.20;;;;;;5025383;28;20057;-77
2021/09/29 04:09:22;;;;;;;0.00;0.00;;;11.80;79.10;;;;;;5027342;28;20029;-76
2021/09/29 04:11:48;;;;;;;0.00;0.00;;;11.80;79.00;;;;;;5026111;28;20385;-77
2021/09/29 04:14:15;;;;;;;0.00;0.00;;;11.70;79.10;;;;;;5025303;28;20018;-77
2021/09/29 04:16:41;;;;;;;0.00;0.00;;;11.70;79.20;;;;;;5026203;28;20342;-76
2021/09/29 04:19:07;;;;;;;0.00;0.00;;;11.70;79.30;;;;;;5024416;28;20041;-76
2021/09/29 04:21:33;;;;;;;0.00;0.00;;;11.70;79.20;;;;;;5016211;28;20026;-76
2021/09/29 04:23:59;;;;;;;0.00;0.00;;;11.70;79.20;;;;;;5017123;28;20037;-77
2021/09/29 04:26:25;;;;;;;0.00;0.00;;;11.70;79.10;;;;;;5017437;28;20054;-76
2021/09/29 04:28:52;;;;;;;0.00;0.00;;;11.70;79.10;;;;;;5016134;28;20382;-77
2021/09/29 04:31:17;;;;;;;0.00;0.00;;;11.70;79.20;;;;;;5017713;28;20028;-77
2021/09/29 04:33:44;;;;;;;0.00;0.00;;;11.70;79.10;;;;;;5017270;28;20120;-77
2021/09/29 04:36:11;;;;;;;0.00;0.00;;;11.70;78.90;;;;;;5015964;28;20076;-78
2021/09/29 04:38:37;;;;;;;0.00;0.00;;;11.70;78.80;;;;;;5018855;28;20048;-77
2021/09/29 04:41:03;;;;;;;0.00;0.00;;;11.70;78.80;;;;;;5026118;28;20369;-77
2021/09/29 04:43:28;;;;;;;0.00;0.00;;;11.70;78.70;;;;;;5024021;28;20022;-76
2021/09/29 04:46:38;;;;;;;0.00;0.00;;;11.70;78.60;;;;;;5023336;28;20022;-77
2021/09/29 04:49:07;;;;;;;0.00;0.00;;;11.60;78.70;;;;;;5046667;28;20394;-75
2021/09/29 04:51:33;;;;;;;0.00;0.00;;;11.60;78.60;;;;;;5026100;28;20030;-77
2021/09/29 04:54:00;;;;;;;0.00;0.00;;;11.60;78.70;;;;;;5028801;28;20017;-77
2021/09/29 04:56:25;;;;;;;0.00;0.00;;;11.60;78.70;;;;;;5035401;28;20033;-75
2021/09/29 04:58:51;;;;;;;0.00;0.00;;;11.60;78.70;;;;;;5052004;28;20029;-77
2021/09/29 05:01:21;;;;;;;0.10;0.10;;;11.60;78.70;;;;;;5034872;28;20129;-77
2021/09/29 05:03:47;;;;;;;0.00;0.00;;;11.70;78.80;;;;;;5035254;28;20053;-77
2021/09/29 05:06:13;;;;;;;0.00;0.00;;;11.70;78.70;;;;;;5019397;28;20073;-76
2021/09/29 05:08:39;;;;;;;0.00;0.00;;;11.80;78.60;;;;;;5015408;28;20474;-76
2021/09/29 05:11:04;;;;;;;0.00;0.00;;;11.80;78.40;;;;;;5015300;28;20036;-77
2021/09/29 05:13:32;;;;;;;0.00;0.00;;;11.90;78.30;;;;;;5014862;28;20026;-76
2021/09/29 05:15:59;;;;;;;0.00;0.00;;;11.90;78.20;;;;;;5015321;28;20443;-78
2021/09/29 05:18:25;;;;;;;0.00;0.00;;;12.00;78.10;;;;;;5016710;28;20029;-77
2021/09/29 05:20:51;;;;;;;0.00;0.00;;;12.00;77.70;;;;;;5015203;28;20080;-77
2021/09/29 05:23:18;;;;;;;0.00;0.00;;;12.00;77.60;;;;;;5023392;28;20026;-77
2021/09/29 05:25:44;;;;;;;0.05;0.00;;;12.00;77.50;;;;;;5026728;28;20041;-77
2021/09/29 05:28:17;;;;;;;0.00;0.00;;;12.10;77.30;;;;;;5025217;28;20025;-79
2021/09/29 05:30:44;;;;;;;0.00;0.00;;;12.10;77.30;;;;;;5027513;28;20373;-79
2021/09/29 05:33:10;;;;;;;0.20;0.10;;;12.20;77.20;;;;;;5022883;28;20026;-77
2021/09/29 05:35:35;;;;;;;0.00;0.00;;;12.30;77.10;;;;;;5024876;28;20044;-77
2021/09/29 05:38:02;;;;;;;0.00;0.00;;;12.40;77.00;;;;;;5023359;28;20118;-77
2021/09/29 05:40:28;;;;;;;0.00;0.00;;;12.50;76.90;;;;;;5023992;28;20030;-79
2021/09/29 05:42:54;;;;;;;0.00;0.00;;;12.60;76.60;;;;;;5022326;28;20034;-84
2021/09/29 05:45:21;;;;;;;0.00;0.00;;;12.60;76.40;;;;;;5025325;28;20028;-76
2021/09/29 05:47:47;;;;;;;0.00;0.00;;;12.80;76.10;;;;;;5018902;28;20034;-76
2021/09/29 05:50:13;;;;;;;0.00;0.00;;;12.90;75.80;;;;;;5015381;28;20084;-76
2021/09/29 05:52:39;;;;;;;0.52;0.00;;;13.00;75.40;;;;;;5015331;28;20026;-78
2021/09/29 05:55:06;;;;;;;0.00;0.00;;;13.00;75.00;;;;;;5015439;28;20025;-78
2021/09/29 05:57:31;;;;;;;0.00;0.00;;;13.10;74.80;;;;;;5015482;28;20030;-77
2021/09/29 05:59:57;;;;;;;0.00;0.00;;;13.20;74.60;;;;;;5014201;28;20075;-77
2021/09/29 06:02:23;;;;;;;0.00;0.00;;;13.20;74.40;;;;;;5014197;28;20382;-77
2021/09/29 06:04:49;;;;;;;0.00;0.00;;;13.20;74.20;;;;;;5019065;28;20022;-78
2021/09/29 06:07:16;;;;;;;0.00;0.00;;;13.30;74.10;;;;;;5016648;28;20605;-77
2021/09/29 06:09:43;;;;;;;0.00;0.00;;;13.40;73.80;;;;;;5014025;28;20060;-77
2021/09/29 06:12:10;;;;;;;0.00;0.00;;;13.50;73.60;;;;;;5014994;28;20034;-77
2021/09/29 06:14:38;;;;;;;0.00;0.00;;;13.60;73.20;;;;;;5015022;28;20026;-77
2021/09/29 06:19:49;;;;;;;0.00;0.00;;;13.70;72.60;;;;;;5035171;28;20122;-76
2021/09/29 06:22:16;;;;;;;0.00;0.00;;;13.80;72.60;;;;;;5034854;28;20473;-77
2021/09/29 06:24:42;;;;;;;0.00;0.00;;;13.90;72.30;;;;;;5034005;28;20055;-78
2021/09/29 06:27:08;;;;;;;0.00;0.00;;;14.00;72.00;;;;;;5032797;28;20030;-77
2021/09/29 06:29:35;;;;;;;0.00;0.00;;;14.10;71.80;;;;;;5023591;28;20072;-77
2021/09/29 06:32:03;;;;;;;0.00;0.00;;;14.30;71.70;;;;;;5023009;28;20413;-78
2021/09/29 06:34:30;;;;;;;0.00;0.00;;;14.50;71.50;;;;;;5022604;28;20025;-76
2021/09/29 06:36:56;;;;;;;0.00;0.00;;;14.80;70.90;;;;;;5024900;28;20033;-76
2021/09/29 06:39:22;;;;;;;0.00;0.00;;;14.90;70.20;;;;;;5023144;28;20026;-77
2021/09/29 06:41:48;;;;;;;0.00;0.00;;;15.00;69.70;;;;;;5020450;28;20449;-77
2021/09/29 06:44:14;;;;;;;0.00;0.00;;;15.00;69.30;;;;;;5024593;28;20017;-77
2021/09/29 06:46:40;;;;;;;0.05;0.00;;;15.00;69.10;;;;;;5034382;28;20365;-77
2021/09/29 06:49:06;;;;;;;0.00;0.00;;;15.10;68.80;;;;;;5033128;28;20033;-77
2021/09/29 06:51:33;;;;;;;0.00;0.00;;;15.10;68.70;;;;;;5026662;28;20415;-77
2021/09/29 06:53:59;;;;;;;0.10;0.10;;;15.20;68.50;;;;;;5018547;28;20125;-79
2021/09/29 06:56:25;;;;;;;0.00;0.00;;;15.30;68.40;;;;;;5022481;28;20105;-76
2021/09/29 06:58:52;;;;;;;0.00;0.00;;;15.40;68.10;;;;;;5025126;28;20026;-78
2021/09/29 07:01:22;;;;;;;0.00;0.00;;;15.50;67.90;;;;;;5022929;28;20121;-77
2021/09/29 07:03:48;;;;;;;0.00;0.00;;;15.60;67.70;;;;;;5022854;28;20022;-77
2021/09/29 07:06:14;;;;;;;0.03;0.00;;;15.80;67.20;;;;;;5024658;28;20029;-77
2021/09/29 07:08:40;;;;;;;0.00;0.00;;;15.80;66.70;;;;;;5022146;28;20034;-78
2021/09/29 07:11:07;;;;;;;0.00;0.00;;;15.80;66.50;;;;;;5025608;28;20050;-78
2021/09/29 07:13:33;;;;;;;0.00;0.00;;;15.80;66.40;;;;;;5023632;28;20030;-77
2021/09/29 07:15:58;;;;;;;0.00;0.00;;;15.90;66.30;;;;;;5021699;28;20044;-80
2021/09/29 07:18:30;;;;;;;0.00;0.00;;;15.90;66.20;;;;;;5023905;28;20029;-77
2021/09/29 07:20:56;;;;;;;0.10;0.00;;;16.00;66.00;;;;;;5022496;28;20668;-77
2021/09/29 07:23:22;;;;;;;0.00;0.00;;;15.90;65.90;;;;;;5022373;28;20113;-77
2021/09/29 07:25:48;;;;;;;0.00;0.00;;;16.00;65.90;;;;;;5020921;28;20132;-77
2021/09/29 07:28:14;;;;;;;0.00;0.00;;;16.10;65.60;;;;;;5022337;28;20084;-77
2021/09/29 07:30:41;;;;;;;0.00;0.00;;;16.10;65.40;;;;;;5020185;28;20044;-77
2021/09/29 07:33:08;;;;;;;0.00;0.00;;;16.20;65.20;;;;;;5019969;28;20108;-78
2021/09/29 07:35:34;;;;;;;0.00;0.00;;;16.20;65.00;;;;;;5022718;28;20029;-78
2021/09/29 07:38:01;;;;;;;0.00;0.00;;;16.10;64.90;;;;;;5019607;28;20032;-78
2021/09/29 07:40:28;;;;;;;0.00;0.00;;;16.10;64.90;;;;;;5017225;28;20034;-77
2021/09/29 07:42:55;;;;;;;0.00;0.00;;;16.10;65.60;;;;;;5012973;28;20052;-76
2021/09/29 07:45:22;;;;;;;0.00;0.00;;;16.00;64.90;;;;;;5012968;28;20033;-78
2021/09/29 07:47:48;;;;;;;0.00;0.00;;;16.00;64.80;;;;;;5013198;28;20097;-76
2021/09/29 07:50:16;;;;;;;0.00;0.00;;;15.90;64.90;;;;;;5013053;28;20129;-76
2021/09/29 07:52:42;;;;;;;0.00;0.00;;;15.80;65.00;;;;;;5011945;28;20030;-77
2021/09/29 07:55:09;;;;;;;0.00;0.00;;;15.70;65.30;;;;;;5013307;28;20083;-78
2021/09/29 07:57:34;;;;;;;0.20;0.10;;;15.80;65.50;;;;;;5013023;28;20104;-76
2021/09/29 08:00:00;;;;;;;0.00;0.00;;;15.80;65.40;;;;;;5012432;28;20061;-77
2021/09/29 08:02:26;;;;;;;0.00;0.00;;;15.80;65.40;;;;;;5033193;28;20045;-77
2021/09/29 08:04:53;;;;;;;0.00;0.00;;;15.90;65.20;;;;;;5032576;28;20052;-78
2021/09/29 08:07:18;;;;;;;0.00;0.00;;;16.00;65.00;;;;;;5032934;28;20075;-76
2021/09/29 08:09:44;;;;;;;0.00;0.00;;;16.20;64.70;;;;;;5032866;28;20060;-77
2021/09/29 08:12:10;;;;;;;0.00;0.00;;;16.30;64.30;;;;;;5031464;28;20350;-77
2021/09/29 08:14:39;;;;;;;0.00;0.00;;;16.40;63.90;;;;;;5032411;28;20386;-77
2021/09/29 08:17:06;;;;;;;0.00;0.00;;;16.40;63.70;;;;;;5032498;28;20351;-77
2021/09/29 08:19:33;;;;;;;0.20;0.00;;;16.30;63.70;;;;;;5031431;28;20033;-76
2021/09/29 08:22:02;;;;;;;0.00;0.00;;;16.30;63.70;;;;;;5033125;28;20064;-83
2021/09/29 08:24:36;;;;;;;0.05;0.00;;;16.30;63.50;;;;;;5033323;28;20080;-77
2021/09/29 08:39:56;;;;;;;0.00;0.00;;;16.30;63.60;;;;;;5032853;28;20033;-76
2021/09/29 08:44:56;;;;;;;0.00;0.00;;;16.40;63.50;;;;;;5032949;28;20477;-78
2021/09/29 08:47:31;;;;;;;0.00;0.00;;;16.50;63.40;;;;;;5032699;28;20024;-76
2021/09/29 09:17:06;;;;;;;;;;;18.20;59.30;;;;;;5016325;28;20044;-77
2021/09/29 09:19:32;;;;;;;0.00;0.00;;;18.50;59.80;;;;;;5031992;28;19909;-76
2021/09/29 09:22:01;;;;;;;0.43;0.00;;;18.70;59.30;;;;;;5027209;28;20509;-76
2021/09/29 09:24:30;;;;;;;0.00;0.00;;;18.90;58.70;;;;;;5026194;28;20057;-77
2021/09/29 09:27:05;;;;;;;0.00;0.00;;;19.20;57.90;;;;;;5024289;28;20112;-77
2021/09/29 09:29:53;;;;;;;0.00;0.00;;;19.30;56.80;;;;;;5031044;28;20069;-77
2021/09/29 09:32:23;;;;;;;0.00;0.00;;;19.50;55.90;;;;;;5034773;28;20466;-78
2021/09/29 09:35:08;;;;;;;0.00;0.00;;;19.70;55.70;;;;;;5023958;28;20104;-77
2021/09/29 09:37:43;;;;;;;0.00;0.00;;;20.20;54.70;;;;;;5022500;28;20033;-81
2021/09/29 09:40:11;;;;;;;0.00;0.00;;;20.70;53.90;;;;;;5010386;28;20461;-77
2021/09/29 09:42:43;;;;;;;0.00;0.00;;;21.00;53.20;;;;;;5026373;28;20474;-77
2021/09/29 09:45:09;;;;;;;0.00;0.00;;;21.10;52.40;;;;;;5025185;28;20392;-78
2021/09/29 09:47:45;;;;;;;0.00;0.00;;;20.90;52.20;;;;;;5019416;28;20493;-79
2021/09/29 09:50:24;;;;;;;0.00;0.00;;;20.60;52.40;;;;;;5026760;28;20112;-79
2021/09/29 09:52:49;;;;;;;0.00;0.00;;;20.20;52.90;;;;;;5027680;28;20389;-78
2021/09/29 09:55:18;;;;;;;0.00;0.00;;;19.70;53.60;;;;;;5025483;28;20021;-79
2021/09/29 09:57:50;;;;;;;0.00;0.00;;;19.20;54.30;;;;;;5029037;28;20549;-77
2021/09/29 10:00:18;;;;;;;0.00;0.00;;;18.70;54.90;;;;;;5017632;28;20091;-79
2021/09/29 10:02:46;;;;;;;0.00;0.00;;;18.20;55.50;;;;;;5024198;28;20136;-78
2021/09/29 10:05:15;;;;;;;0.05;0.00;;;17.80;56.30;;;;;;5028507;28;20013;-79
2021/09/29 10:07:41;;;;;;;0.00;0.00;;;17.40;57.00;;;;;;5025039;28;20037;-78
2021/09/29 10:10:16;;;;;;;0.00;0.00;;;17.10;57.60;;;;;;5022675;28;20083;-77
2021/09/29 10:27:22;;;;;;;0.00;0.00;;;15.90;60.80;;;;;;5035969;28;20045;-76
2021/09/29 10:30:07;;;;;;;0.00;0.00;;;15.80;61.10;;;;;;5022414;28;20053;-77
2021/09/29 10:33:05;;;;;;;0.00;0.00;;;15.80;61.20;;;;;;5033538;28;20079;-80
2021/09/29 10:46:21;;;;;;;0.00;0.00;;;15.50;61.40;;;;;;5024363;28;20033;-76
2021/09/29 11:30:02;;;;;;;0.00;0.00;;;16.50;59.20;;;;;;5021682;28;20080;-76
2021/09/29 11:34:57;;;;;;;0.00;0.00;;;16.70;58.90;;;;;;5014411;28;20386;-77
2021/09/29 11:49:15;;;;;;;0.10;0.00;;;17.00;58.10;;;;;;5013183;28;20037;-78
2021/09/29 12:08:16;;;;;;;0.00;0.00;;;16.60;57.40;;;;;;5032901;28;20036;-76
2021/09/29 12:10:52;;;;;;;0.10;0.08;;;16.30;57.60;;;;;;5031605;28;20405;-75
2021/09/29 12:13:18;;;;;;;0.00;0.00;;;16.20;57.80;;;;;;5033275;28;20033;-77
2021/09/29 12:15:45;;;;;;;0.00;0.00;;;16.00;58.00;;;;;;5031784;28;20040;-76
2021/09/29 12:18:13;;;;;;;0.00;0.00;;;15.90;58.20;;;;;;5031504;28;20026;-76
2021/09/29 12:20:50;;;;;;;0.00;0.00;;;15.80;58.20;;;;;;5033232;28;20029;-78
2021/09/29 12:23:17;;;;;;;0.00;0.00;;;15.70;58.30;;;;;;5034421;28;20032;-84
2021/09/29 12:26:05;;;;;;;0.00;0.00;;;15.70;58.40;;;;;;5035994;28;20371;-78
2021/09/29 12:28:45;;;;;;;0.00;0.00;;;15.60;58.40;;;;;;5037477;28;20378;-87
2021/09/29 12:34:14;;;;;;;0.00;0.00;;;15.50;58.70;;;;;;5016824;28;20029;-78
2021/09/29 12:36:40;;;;;;;0.00;0.00;;;15.40;58.90;;;;;;5028531;28;20025;-77
2021/09/29 12:39:19;;;;;;;0.00;0.00;;;15.40;58.90;;;;;;5051484;28;20029;-77
2021/09/29 12:41:49;;;;;;;0.00;0.00;;;15.30;59.00;;;;;;5049007;28;20040;-76
2021/09/29 12:44:16;;;;;;;0.00;0.00;;;15.30;59.10;;;;;;5056311;28;20447;-77
2021/09/29 12:46:46;;;;;;;0.00;0.00;;;15.30;59.20;;;;;;5042021;28;20461;-78
2021/09/29 12:49:22;;;;;;;0.00;0.00;;;15.30;59.40;;;;;;5033169;28;20458;-77
2021/09/29 12:52:01;;;;;;;0.00;0.00;;;15.30;59.50;;;;;;5036409;28;20390;-77
2021/09/29 12:54:27;;;;;;;0.00;0.00;;;15.30;59.50;;;;;;5035279;28;20030;-76
2021/09/29 12:56:53;;;;;;;0.00;0.00;;;15.30;59.40;;;;;;5018757;28;20139;-77
2021/09/29 12:59:18;;;;;;;0.00;0.00;;;15.30;59.40;;;;;;5026536;28;20470;-76
2021/09/29 13:01:44;;;;;;;0.00;0.00;;;15.30;59.40;;;;;;5024826;28;20029;-77
2021/09/29 13:04:10;;;;;;;0.00;0.00;;;15.30;59.40;;;;;;5016682;28;20382;-77
2021/09/29 13:06:35;;;;;;;0.00;0.00;;;15.40;59.50;;;;;;5028551;28;20026;-78
2021/09/29 13:09:01;;;;;;;0.00;0.00;;;15.40;59.50;;;;;;5028873;28;20381;-79
2021/09/29 13:11:27;;;;;;;0.00;0.00;;;15.40;59.50;;;;;;5022290;28;20033;-77
2021/09/29 13:13:53;;;;;;;0.00;0.00;;;15.30;59.50;;;;;;5030310;28;20034;-77
2021/09/29 13:16:20;;;;;;;0.00;0.00;;;15.30;59.50;;;;;;5035984;28;20025;-78
2021/09/29 13:18:57;;;;;;;0.03;0.03;;;15.30;59.60;;;;;;5023658;28;20112;-78
2021/09/29 13:21:37;;;;;;;0.10;0.00;;;15.20;59.60;;;;;;5016200;28;20029;-77
2021/09/29 13:24:17;;;;;;;0.30;0.10;;;15.20;59.60;;;;;;5016514;28;20053;-77
2021/09/29 13:27:33;;;;;;;0.00;0.00;;;15.10;59.30;;;;;;5014914;28;20052;-79
2021/09/29 13:37:38;;;;;;;0.00;0.00;;;14.90;59.40;;;;;;5034722;28;20294;-77
2021/09/29 13:40:06;;;;;;;0.00;0.00;;;14.80;59.40;;;;;;5034689;28;20072;-77
2021/09/29 13:42:32;;;;;;;0.00;0.00;;;14.80;59.40;;;;;;5035191;28;20040;-76
2021/09/29 13:44:58;;;;;;;0.00;0.00;;;14.80;59.50;;;;;;5033965;28;20032;-77
2021/09/29 13:47:24;;;;;;;0.00;0.00;;;14.80;59.50;;;;;;5035656;28;20036;-77
2021/09/29 13:49:50;;;;;;;0.05;0.00;;;14.80;59.70;;;;;;5035551;28;20039;-78
2021/09/29 13:52:22;;;;;;;0.00;0.00;;;14.70;59.70;;;;;;5035506;28;20029;-76
2021/09/29 13:54:50;;;;;;;0.00;0.00;;;14.70;59.80;;;;;;5035690;28;20091;-78
2021/09/29 13:57:20;;;;;;;0.00;0.00;;;14.70;59.90;;;;;;5034363;28;20052;-78
2021/09/29 14:32:25;;;;;;;0.00;0.00;;;14.10;60.80;;;;;;5024691;28;20033;-77
2021/09/29 14:34:51;;;;;;;0.00;0.00;;;14.00;60.70;;;;;;5024698;28;20102;-76
2021/09/29 14:37:17;;;;;;;0.00;0.00;;;14.00;60.70;;;;;;5023395;28;20386;-77
2021/09/29 14:39:43;;;;;;;0.00;0.00;;;13.90;60.80;;;;;;5023098;28;20037;-77
2021/09/29 14:42:09;;;;;;;0.25;0.00;;;13.90;60.90;;;;;;5024970;28;20577;-78
2021/09/29 14:44:36;;;;;;;0.00;0.00;;;13.90;60.90;;;;;;5022474;28;20108;-77
2021/09/29 14:47:09;;;;;;;0.00;0.00;;;13.90;61.00;;;;;;5024083;28;20419;-77
2021/09/29 14:49:36;;;;;;;0.00;0.00;;;13.90;61.60;;;;;;5025085;28;20025;-78
2021/09/29 14:52:03;;;;;;;0.00;0.00;;;13.90;60.90;;;;;;5023732;28;20018;-78
2021/09/29 14:54:30;;;;;;;0.00;0.00;;;13.90;60.90;;;;;;5025355;28;20034;-77
2021/09/29 14:56:56;;;;;;;0.00;0.00;;;13.80;60.80;;;;;;5029847;28;20037;-76
2021/09/29 14:59:22;;;;;;;0.10;0.00;;;13.80;60.60;;;;;;5032836;28;20498;-77
2021/09/29 15:01:48;;;;;;;0.00;0.00;;;13.80;60.40;;;;;;5034104;28;20032;-77
2021/09/29 15:04:14;;;;;;;0.00;0.00;;;13.80;60.20;;;;;;5032720;28;20484;-79
2021/09/29 15:06:39;;;;;;;0.03;0.00;;;13.80;60.20;;;;;;5042129;28;20064;-77
2021/09/29 15:09:06;;;;;;;0.10;0.00;;;13.70;60.30;;;;;;5053532;28;20025;-76
2021/09/29 15:11:31;;;;;;;0.00;0.00;;;13.70;60.40;;;;;;5053756;28;20505;-78
2021/09/29 15:14:05;;;;;;;0.00;0.00;;;13.70;60.50;;;;;;5042507;28;20118;-77
2021/09/29 15:16:41;;;;;;;0.00;0.00;;;13.70;60.60;;;;;;5033531;28;20022;-76
2021/09/29 15:27:27;;;;;;;0.00;0.00;;;13.60;60.80;;;;;;5033618;28;20091;-78
2021/09/29 15:48:42;;;;;;;0.00;0.00;;;13.40;61.10;;;;;;5013840;28;20048;-77
2021/09/29 15:51:24;;;;;;;0.00;0.00;;;13.40;61.20;;;;;;5014386;28;20034;-76
2021/09/29 16:01:44;;;;;;;0.00;0.00;;;13.20;61.20;;;;;;5017495;28;20034;-74
2021/09/29 16:04:22;;;;;;;0.00;0.00;;;13.20;61.50;;;;;;5033035;28;20026;-77
2021/09/29 16:06:56;;;;;;;0.00;0.00;;;13.20;61.70;;;;;;5017693;28;20033;-75
2021/09/29 16:14:54;;;;;;;0.00;0.00;;;13.10;62.10;;;;;;5037265;28;20037;-77
2021/09/29 16:23:16;;;;;;;0.20;0.20;;;13.00;62.40;;;;;;5037198;28;19963;-84
2021/09/29 16:33:54;;;;;;;0.00;0.00;;;12.80;63.10;;;;;;5017181;28;20390;-81
2021/09/29 16:36:21;;;;;;;0.00;0.00;;;12.80;63.30;;;;;;5017118;28;20038;-84
2021/09/29 16:38:47;;;;;;;0.55;0.00;;;12.80;63.50;;;;;;5035495;28;20041;-80
2021/09/29 16:41:15;;;;;;;0.00;0.00;;;12.70;63.50;;;;;;5037045;28;20030;-79
2021/09/29 16:43:44;;;;;;;0.00;0.00;;;12.70;63.80;;;;;;5046801;28;20554;-81
2021/09/29 16:46:13;;;;;;;0.00;0.00;;;12.70;64.00;;;;;;5056613;28;20049;-78
2021/09/29 16:48:39;;;;;;;0.00;0.00;;;12.60;64.90;;;;;;5043844;28;20486;-83
2021/09/29 16:51:18;;;;;;;0.10;0.00;;;12.60;64.50;;;;;;5038696;28;20037;-80
2021/09/29 16:53:49;;;;;;;0.00;0.00;;;12.60;64.70;;;;;;5038887;28;20040;-82